createdAt,value
2022-09-11T00:01:31.413Z,21.45
2022-09-11T00:03:58.735Z,21.35
2022-09-11T00:06:30.554Z,21.49
2022-09-11T00:09:01.400Z,21.48
2022-09-11T00:11:34.830Z,21.34
2022-09-11T00:14:02.386Z,21.45
2022-09-11T00:16:34.936Z,21.32
2022-09-11T00:19:20.537Z,21.29
2022-09-11T00:21:50.629Z,21.37
2022-09-11T00:24:17.771Z,21.43
2022-09-11T00:26:47.657Z,21.32
2022-09-11T00:29:14.347Z,21.28
2022-09-11T00:31:41.775Z,21.19
2022-09-11T00:34:09.263Z,21.22
2022-09-11T00:36:37.701Z,21.29
2022-09-11T00:39:04.801Z,21.22
2022-09-11T00:41:36.483Z,21.22
2022-09-11T00:44:05.485Z,21.21
2022-09-11T00:46:38.220Z,21.22
2022-09-11T00:49:18.025Z,21.15
2022-09-11T00:51:47.324Z,21.03
2022-09-11T00:54:16.484Z,20.94
2022-09-11T00:56:44.149Z,21.06
2022-09-11T00:59:12.877Z,20.94
2022-09-11T01:01:39.783Z,20.89
2022-09-11T01:04:08.158Z,20.83
2022-09-11T01:06:35.354Z,20.83
2022-09-11T01:09:02.077Z,20.86
2022-09-11T01:11:49.353Z,20.92
2022-09-11T01:14:34.275Z,20.79
2022-09-11T01:17:22.974Z,20.90
2022-09-11T01:20:34.227Z,20.68
2022-09-11T01:23:26.454Z,20.78
2022-09-11T01:26:08.306Z,20.51
2022-09-11T01:28:58.897Z,20.69
2022-09-11T01:31:30.762Z,20.66
2022-09-11T01:34:00.038Z,20.58
2022-09-11T01:36:36.429Z,20.59
2022-09-11T01:39:04.926Z,20.53
2022-09-11T01:42:14.848Z,20.61
2022-09-11T01:44:50.475Z,20.47
2022-09-11T01:47:20.073Z,20.40
2022-09-11T01:49:56.471Z,20.43
2022-09-11T01:52:28.197Z,20.45
2022-09-11T01:55:01.945Z,20.39
2022-09-11T01:57:49.935Z,20.48
2022-09-11T02:00:17.467Z,20.53
2022-09-11T02:02:49.589Z,20.44
2022-09-11T02:05:25.547Z,20.32
2022-09-11T02:08:11.492Z,20.31
2022-09-11T02:10:47.452Z,20.43
2022-09-11T02:13:31.106Z,20.58
2022-09-11T02:16:11.908Z,20.49
2022-09-11T02:18:48.667Z,20.40
2022-09-11T02:21:15.552Z,20.48
2022-09-11T02:23:42.596Z,20.47
2022-09-11T02:26:13.209Z,20.47
2022-09-11T02:28:40.732Z,20.59
2022-09-11T02:31:08.367Z,20.57
2022-09-11T02:33:37.112Z,20.64
2022-09-11T02:36:22.574Z,20.63
2022-09-11T02:39:07.594Z,20.72
2022-09-11T02:41:50.395Z,20.64
2022-09-11T02:44:31.845Z,20.68
2022-09-11T02:47:04.660Z,20.74
2022-09-11T02:49:59.285Z,20.69
2022-09-11T02:52:48.253Z,20.56
2022-09-11T02:55:29.774Z,20.50
2022-09-11T02:58:05.073Z,20.43
2022-09-11T03:00:32.286Z,20.35
2022-09-11T03:02:59.413Z,20.00
2022-09-11T03:05:26.356Z,19.99
2022-09-11T03:07:53.170Z,19.89
2022-09-11T03:10:19.998Z,20.10
2022-09-11T03:12:47.022Z,20.08
2022-09-11T03:15:16.377Z,20.34
2022-09-11T03:17:43.171Z,20.33
2022-09-11T03:20:10.285Z,20.40
2022-09-11T03:22:37.057Z,20.39
2022-09-11T03:25:04.582Z,20.39
2022-09-11T03:27:31.466Z,20.39
2022-09-11T03:29:58.763Z,20.34
2022-09-11T03:32:25.481Z,20.28
2022-09-11T03:34:52.387Z,20.32
2022-09-11T03:37:19.122Z,20.24
2022-09-11T03:39:46.026Z,20.44
2022-09-11T03:42:12.928Z,20.29
2022-09-11T03:44:41.149Z,20.36
2022-09-11T03:47:09.218Z,20.24
2022-09-11T03:49:36.032Z,20.10
2022-09-11T03:52:02.989Z,20.19
2022-09-11T03:54:29.808Z,20.38
2022-09-11T03:56:56.593Z,20.28
2022-09-11T03:59:23.380Z,20.36
2022-09-11T04:01:50.979Z,20.35
2022-09-11T04:04:18.214Z,20.50
2022-09-11T04:06:45.064Z,20.42
2022-09-11T04:09:11.871Z,20.30
2022-09-11T04:11:41.744Z,20.52
2022-09-11T04:14:08.765Z,20.40
2022-09-11T04:16:35.805Z,20.35
2022-09-11T04:19:03.301Z,20.23
2022-09-11T04:21:31.385Z,20.18
2022-09-11T04:24:00.426Z,20.20
2022-09-11T04:26:33.044Z,20.16
2022-09-11T04:29:00.490Z,20.19
2022-09-11T04:31:27.962Z,20.23
2022-09-11T04:33:57.716Z,20.26
2022-09-11T04:36:27.158Z,20.11
2022-09-11T04:38:58.563Z,20.21
2022-09-11T04:41:26.333Z,20.12
2022-09-11T04:44:02.390Z,20.19
2022-09-11T04:46:31.786Z,19.89
2022-09-11T04:48:59.454Z,19.72
2022-09-11T04:51:29.260Z,19.59
2022-09-11T04:53:57.804Z,19.58
2022-09-11T04:56:30.143Z,19.59
2022-09-11T04:59:02.891Z,19.54
2022-09-11T05:01:31.393Z,19.82
2022-09-11T05:04:00.637Z,19.72
2022-09-11T05:06:30.362Z,19.85
2022-09-11T05:09:02.822Z,19.96
2022-09-11T05:11:30.425Z,19.86
2022-09-11T05:14:00.546Z,19.93
2022-09-11T05:16:29.680Z,19.93
2022-09-11T05:18:57.560Z,19.96
2022-09-11T05:21:26.813Z,19.97
2022-09-11T05:23:55.949Z,19.88
2022-09-11T05:26:34.049Z,19.86
2022-09-11T05:29:07.496Z,19.95
2022-09-11T05:31:34.911Z,19.87
2022-09-11T05:34:03.376Z,20.04
2022-09-11T05:36:33.620Z,20.04
2022-09-11T05:39:00.566Z,20.09
2022-09-11T05:41:27.755Z,20.07
2022-09-11T05:43:54.884Z,19.87
2022-09-11T05:46:22.138Z,19.99
2022-09-11T05:48:48.917Z,20.03
2022-09-11T05:51:19.405Z,20.13
2022-09-11T05:53:46.661Z,20.00
2022-09-11T05:56:14.561Z,20.02
2022-09-11T05:58:41.437Z,19.79
2022-09-11T06:01:14.289Z,19.93
2022-09-11T06:03:41.814Z,19.90
2022-09-11T06:06:11.608Z,19.94
2022-09-11T06:08:39.924Z,19.79
2022-09-11T06:11:08.445Z,19.95
2022-09-11T06:13:41.018Z,19.86
2022-09-11T06:16:18.396Z,19.90
2022-09-11T06:18:49.785Z,19.72
2022-09-11T06:21:20.347Z,19.86
2022-09-11T06:23:48.669Z,19.92
2022-09-11T06:26:18.579Z,19.88
2022-09-11T06:28:45.233Z,19.82
2022-09-11T06:31:13.666Z,19.93
2022-09-11T06:33:41.293Z,19.92
2022-09-11T06:36:11.760Z,19.92
2022-09-11T06:38:38.595Z,19.62
2022-09-11T06:41:12.947Z,19.81
2022-09-11T06:43:40.833Z,19.95
2022-09-11T06:46:12.950Z,20.02
2022-09-11T06:48:40.884Z,20.02
2022-09-11T06:51:11.515Z,19.83
2022-09-11T06:53:39.506Z,19.89
2022-09-11T06:56:07.188Z,19.80
2022-09-11T06:58:34.059Z,19.85
2022-09-11T07:01:04.641Z,19.69
2022-09-11T07:03:31.617Z,19.50
2022-09-11T07:05:58.917Z,19.70
2022-09-11T07:08:26.312Z,19.73
2022-09-11T07:10:53.730Z,20.00
2022-09-11T07:13:20.904Z,20.05
2022-09-11T07:15:50.499Z,19.99
2022-09-11T07:18:18.075Z,19.98
2022-09-11T07:20:44.836Z,20.32
2022-09-11T07:23:11.705Z,20.35
2022-09-11T07:25:41.472Z,20.41
2022-09-11T07:28:08.247Z,20.52
2022-09-11T07:30:35.508Z,20.65
2022-09-11T07:33:02.489Z,20.71
2022-09-11T07:35:29.199Z,21.20
2022-09-11T07:37:56.114Z,21.20
2022-09-11T07:40:22.821Z,21.15
2022-09-11T07:42:49.560Z,21.47
2022-09-11T07:45:19.780Z,21.75
2022-09-11T07:47:49.267Z,21.63
2022-09-11T07:50:18.729Z,21.90
2022-09-11T07:52:45.512Z,22.05
2022-09-11T07:55:12.212Z,22.61
2022-09-11T07:57:39.181Z,22.82
2022-09-11T08:00:07.789Z,22.78
2022-09-11T08:02:34.549Z,23.05
2022-09-11T08:05:02.505Z,22.90
2022-09-11T08:07:29.908Z,23.48
2022-09-11T08:10:23.271Z,23.64
2022-09-11T08:12:43.653Z,24.17
2022-09-11T08:15:10.472Z,24.40
2022-09-11T08:17:38.711Z,24.54
2022-09-11T08:20:06.064Z,24.50
2022-09-11T08:22:32.793Z,24.81
2022-09-11T08:24:59.504Z,24.79
2022-09-11T08:27:26.437Z,24.80
2022-09-11T08:29:54.186Z,25.20
2022-09-11T08:32:20.905Z,25.26
2022-09-11T08:34:48.284Z,25.81
2022-09-11T08:37:15.004Z,26.23
2022-09-11T08:39:41.700Z,26.51
2022-09-11T08:42:18.482Z,26.53
2022-09-11T08:44:50.458Z,26.98
2022-09-11T08:47:22.492Z,27.07
2022-09-11T08:49:59.407Z,27.13
2022-09-11T08:52:26.800Z,27.20
2022-09-11T08:54:58.220Z,27.79
2022-09-11T08:57:40.452Z,27.92
2022-09-11T09:00:23.501Z,28.17
2022-09-11T09:02:57.151Z,28.39
2022-09-11T09:05:54.925Z,28.81
2022-09-11T09:08:24.854Z,29.19
2022-09-11T09:11:15.793Z,29.29
2022-09-11T09:14:07.036Z,29.32
2022-09-11T09:16:58.049Z,29.80
2022-09-11T09:19:51.516Z,29.80
2022-09-11T09:22:35.515Z,30.23
2022-09-11T09:25:10.231Z,30.77
2022-09-11T09:28:00.511Z,30.70
2022-09-11T09:30:30.294Z,30.88
2022-09-11T09:33:22.766Z,31.33
2022-09-11T09:35:51.185Z,31.41
2022-09-11T09:38:26.388Z,31.53
2022-09-11T09:41:12.312Z,31.59
2022-09-11T09:44:00.941Z,31.48
2022-09-11T09:46:50.172Z,31.71
2022-09-11T09:49:27.623Z,31.66
2022-09-11T09:52:00.886Z,31.75
2022-09-11T09:54:34.214Z,31.57
2022-09-11T09:57:04.801Z,31.92
2022-09-11T09:59:43.288Z,31.97
2022-09-11T10:02:10.246Z,32.44
2022-09-11T10:04:37.028Z,32.80
2022-09-11T10:07:20.351Z,32.72
2022-09-11T10:09:51.753Z,32.75
2022-09-11T10:12:23.005Z,32.97
2022-09-11T10:14:54.309Z,32.95
2022-09-11T10:17:29.671Z,32.74
2022-09-11T10:20:12.316Z,32.95
2022-09-11T10:22:39.265Z,33.29
2022-09-11T10:25:10.970Z,33.59
2022-09-11T10:27:51.293Z,33.33
2022-09-11T10:30:31.789Z,33.39
2022-09-11T10:33:03.479Z,33.58
2022-09-11T10:35:33.882Z,33.44
2022-09-11T10:38:20.559Z,33.43
2022-09-11T10:41:10.132Z,33.86
2022-09-11T10:44:00.765Z,34.00
2022-09-11T10:46:40.018Z,34.14
2022-09-11T10:49:06.977Z,34.01
2022-09-11T10:51:55.158Z,33.88
2022-09-11T10:54:38.946Z,33.39
2022-09-11T10:57:30.692Z,33.22
2022-09-11T11:00:06.781Z,33.24
2022-09-11T11:02:37.674Z,33.36
2022-09-11T11:05:29.771Z,33.24
2022-09-11T11:08:04.981Z,32.75
2022-09-11T11:10:51.485Z,33.04
2022-09-11T11:13:42.796Z,33.46
2022-09-11T11:16:39.964Z,33.60
2022-09-11T11:19:43.459Z,34.11
2022-09-11T11:22:22.541Z,34.33
2022-09-11T11:24:54.930Z,34.26
2022-09-11T11:27:33.725Z,34.00
2022-09-11T11:30:19.371Z,33.65
2022-09-11T11:33:04.901Z,33.84
2022-09-11T11:36:04.528Z,33.60
2022-09-11T11:38:34.392Z,34.14
2022-09-11T11:41:09.820Z,34.45
2022-09-11T11:43:41.170Z,34.49
2022-09-11T11:46:33.635Z,34.66
2022-09-11T11:49:05.952Z,35.10
2022-09-11T11:51:44.610Z,35.33
2022-09-11T11:54:26.076Z,35.67
2022-09-11T11:56:56.684Z,36.22
2022-09-11T11:59:42.386Z,36.16
2022-09-11T12:02:09.196Z,36.60
2022-09-11T12:04:45.270Z,36.64
2022-09-11T12:07:30.342Z,36.82
2022-09-11T12:09:59.820Z,37.35
2022-09-11T12:12:30.140Z,37.94
2022-09-11T12:15:05.262Z,38.52
2022-09-11T12:17:34.695Z,39.12
2022-09-11T12:20:13.600Z,39.50
2022-09-11T12:22:48.876Z,39.67
2022-09-11T12:25:21.884Z,40.00
2022-09-11T12:27:51.984Z,40.50
2022-09-11T12:30:18.708Z,40.27
2022-09-11T12:32:53.416Z,40.23
2022-09-11T12:35:43.306Z,40.34
2022-09-11T12:38:10.086Z,40.36
2022-09-11T12:40:52.918Z,39.73
2022-09-11T12:43:20.768Z,39.20
2022-09-11T12:45:48.476Z,39.30
2022-09-11T12:48:22.601Z,40.09
2022-09-11T12:50:52.986Z,40.12
2022-09-11T12:53:28.173Z,39.78
2022-09-11T12:56:03.359Z,40.53
2022-09-11T12:58:55.702Z,40.68
2022-09-11T13:01:47.093Z,40.20
2022-09-11T13:04:22.248Z,40.24
2022-09-11T13:06:56.332Z,40.32
2022-09-11T13:09:48.365Z,39.37
2022-09-11T13:12:24.361Z,36.36
2022-09-11T13:14:52.339Z,34.37
2022-09-11T13:17:31.825Z,32.98
2022-09-11T13:20:10.855Z,32.05
2022-09-11T13:22:38.663Z,31.49
2022-09-11T13:25:18.639Z,30.77
2022-09-11T13:27:50.090Z,29.83
2022-09-11T13:30:20.117Z,29.39
2022-09-11T13:32:49.866Z,29.11
2022-09-11T13:35:23.714Z,29.05
2022-09-11T13:38:07.017Z,28.72
2022-09-11T13:40:54.901Z,28.17
2022-09-11T13:43:57.529Z,28.17
2022-09-11T13:46:26.332Z,27.98
2022-09-11T13:48:58.302Z,27.91
2022-09-11T13:51:29.993Z,27.76
2022-09-11T13:54:00.664Z,27.55
2022-09-11T13:56:41.820Z,27.49
2022-09-11T13:59:39.570Z,27.43
2022-09-11T14:02:34.954Z,27.36
2022-09-11T14:05:27.174Z,27.30
2022-09-11T14:07:56.878Z,27.37
2022-09-11T14:10:23.794Z,27.37
2022-09-11T14:13:17.038Z,27.32
2022-09-11T14:15:57.683Z,27.25
2022-09-11T14:18:55.983Z,27.22
2022-09-11T14:21:26.423Z,27.16
2022-09-11T14:23:54.324Z,27.26
2022-09-11T14:26:24.457Z,26.99
2022-09-11T14:29:00.332Z,27.04
2022-09-11T14:31:40.305Z,26.98
2022-09-11T14:34:36.895Z,26.90
2022-09-11T14:37:08.264Z,26.78
2022-09-11T14:39:48.154Z,26.50
2022-09-11T14:42:21.376Z,26.61
2022-09-11T14:44:48.394Z,26.35
2022-09-11T14:47:23.886Z,26.45
2022-09-11T14:49:57.744Z,26.43
2022-09-11T14:52:27.241Z,26.32
2022-09-11T14:54:54.363Z,26.20
2022-09-11T14:57:27.650Z,26.20
2022-09-11T14:59:54.473Z,26.15
2022-09-11T15:02:29.678Z,26.35
2022-09-11T15:04:58.314Z,26.39
2022-09-11T15:07:27.482Z,26.30
2022-09-11T15:09:55.457Z,26.22
2022-09-11T15:12:23.675Z,26.02
2022-09-11T15:14:59.024Z,26.35
2022-09-11T15:17:31.873Z,26.40
2022-09-11T15:20:00.480Z,26.26
2022-09-11T15:22:27.558Z,26.29
2022-09-11T15:24:56.739Z,26.34
2022-09-11T15:27:25.395Z,26.33
2022-09-11T15:29:52.716Z,26.24
2022-09-11T15:32:21.387Z,26.14
2022-09-11T15:34:48.194Z,26.17
2022-09-11T15:37:17.082Z,26.23
2022-09-11T15:39:44.063Z,26.08
2022-09-11T15:42:12.075Z,26.23
2022-09-11T15:44:38.928Z,26.16
2022-09-11T15:47:06.469Z,26.08
2022-09-11T15:49:33.237Z,26.20
2022-09-11T15:52:00.609Z,26.06
2022-09-11T15:54:27.853Z,26.10
2022-09-11T15:56:55.016Z,26.08
2022-09-11T15:59:21.799Z,26.26
2022-09-11T16:01:49.053Z,26.34
2022-09-11T16:04:20.344Z,26.21
2022-09-11T16:06:49.305Z,26.13
2022-09-11T16:09:19.417Z,26.03
2022-09-11T16:11:48.143Z,25.94
2022-09-11T16:14:21.671Z,25.85
2022-09-11T16:16:48.677Z,25.91
2022-09-11T16:19:17.428Z,26.04
2022-09-11T16:21:44.681Z,25.83
2022-09-11T16:24:13.716Z,25.83
2022-09-11T16:26:40.819Z,25.87
2022-09-11T16:29:10.066Z,25.75
2022-09-11T16:31:36.917Z,25.81
2022-09-11T16:34:04.732Z,25.81
2022-09-11T16:36:38.605Z,25.65
2022-09-11T16:39:14.369Z,25.74
2022-09-11T16:41:41.244Z,25.54
2022-09-11T16:44:10.884Z,25.63
2022-09-11T16:46:38.291Z,25.55
2022-09-11T16:49:06.378Z,25.57
2022-09-11T16:51:34.317Z,25.71
2022-09-11T16:54:02.150Z,25.68
2022-09-11T16:56:29.200Z,25.55
2022-09-11T16:58:56.027Z,25.66
2022-09-11T17:01:25.901Z,25.64
2022-09-11T17:03:54.401Z,25.68
2022-09-11T17:06:22.886Z,25.68
2022-09-11T17:08:51.448Z,25.75
2022-09-11T17:11:22.123Z,25.64
2022-09-11T17:13:50.555Z,25.49
2022-09-11T17:16:20.506Z,25.52
2022-09-11T17:18:49.079Z,25.59
2022-09-11T17:21:17.478Z,25.63
2022-09-11T17:23:44.229Z,25.70
2022-09-11T17:26:14.388Z,25.73
2022-09-11T17:28:42.831Z,25.76
2022-09-11T17:31:11.423Z,25.82
2022-09-11T17:33:40.574Z,25.69
2022-09-11T17:36:10.165Z,25.67
2022-09-11T17:38:37.400Z,25.68
2022-09-11T17:41:07.113Z,25.57
2022-09-11T17:43:35.063Z,25.74
2022-09-11T17:46:04.998Z,25.60
2022-09-11T17:48:32.604Z,25.55
2022-09-11T17:51:11.289Z,25.49
2022-09-11T17:53:41.681Z,25.50
2022-09-11T17:56:14.721Z,25.21
2022-09-11T17:58:45.248Z,25.42
2022-09-11T18:01:16.656Z,25.59
2022-09-11T18:03:44.042Z,25.48
2022-09-11T18:06:40.526Z,25.55
2022-09-11T18:09:16.489Z,25.72
2022-09-11T18:11:45.433Z,25.51
2022-09-11T18:14:13.933Z,25.63
2022-09-11T18:16:44.470Z,25.58
2022-09-11T18:19:14.488Z,25.24
2022-09-11T18:21:41.645Z,25.52
2022-09-11T18:24:09.920Z,25.42
2022-09-11T18:26:40.225Z,25.47
2022-09-11T18:29:16.262Z,25.33
2022-09-11T18:31:45.527Z,25.35
2022-09-11T18:34:15.384Z,25.31
2022-09-11T18:36:42.711Z,25.14
2022-09-11T18:39:12.272Z,25.20
2022-09-11T18:41:38.890Z,25.05
2022-09-11T18:44:12.623Z,25.00
2022-09-11T18:46:42.171Z,25.03
2022-09-11T18:49:13.414Z,24.93
2022-09-11T18:51:45.494Z,24.90
2022-09-11T18:54:18.403Z,24.88
2022-09-11T18:56:45.818Z,24.87
2022-09-11T18:59:13.702Z,24.79
2022-09-11T19:01:41.444Z,24.80
2022-09-11T19:04:10.472Z,24.67
2022-09-11T19:06:38.944Z,24.58
2022-09-11T19:09:10.597Z,24.69
2022-09-11T19:11:38.065Z,24.61
2022-09-11T19:14:07.114Z,24.51
2022-09-11T19:16:34.686Z,24.64
2022-09-11T19:19:02.949Z,24.52
2022-09-11T19:21:29.998Z,24.33
2022-09-11T19:24:00.371Z,24.13
2022-09-11T19:26:33.786Z,24.23
2022-09-11T19:29:01.320Z,24.33
2022-09-11T19:31:29.821Z,24.23
2022-09-11T19:34:00.268Z,24.27
2022-09-11T19:36:32.424Z,24.07
2022-09-11T19:39:00.656Z,24.23
2022-09-11T19:41:33.757Z,23.65
2022-09-11T19:44:02.397Z,24.15
2022-09-11T19:46:30.701Z,24.10
2022-09-11T19:49:00.531Z,24.12
2022-09-11T19:51:30.119Z,24.05
2022-09-11T19:54:00.186Z,24.22
2022-09-11T19:56:28.157Z,24.24
2022-09-11T19:58:55.655Z,24.44
2022-09-11T20:01:24.726Z,24.28
2022-09-11T20:03:54.248Z,24.48
2022-09-11T20:06:24.795Z,24.17
2022-09-11T20:09:07.644Z,24.20
2022-09-11T20:11:40.533Z,24.42
2022-09-11T20:14:07.602Z,24.35
2022-09-11T20:16:34.520Z,24.50
2022-09-11T20:19:07.280Z,24.48
2022-09-11T20:21:36.237Z,24.48
2022-09-11T20:24:05.422Z,24.40
2022-09-11T20:26:32.962Z,24.17
2022-09-11T20:29:09.210Z,24.38
2022-09-11T20:31:48.863Z,24.39
2022-09-11T20:34:19.950Z,23.69
2022-09-11T20:36:48.979Z,23.80
2022-09-11T20:39:16.618Z,24.31
2022-09-11T20:41:44.047Z,24.19
2022-09-11T20:44:11.771Z,24.40
2022-09-11T20:46:38.714Z,24.27
2022-09-11T20:49:05.566Z,24.48
2022-09-11T20:51:33.193Z,24.47
2022-09-11T20:54:00.532Z,24.38
2022-09-11T20:56:28.264Z,24.45
2022-09-11T20:58:55.396Z,24.32
2022-09-11T21:01:23.877Z,24.07
2022-09-11T21:03:52.975Z,24.47
2022-09-11T21:06:25.868Z,24.38
2022-09-11T21:08:56.044Z,24.39
2022-09-11T21:11:23.538Z,24.28
2022-09-11T21:13:50.353Z,24.24
2022-09-11T21:16:20.039Z,24.24
2022-09-11T21:18:50.133Z,24.05
2022-09-11T21:21:17.685Z,24.23
2022-09-11T21:23:45.036Z,24.20
2022-09-11T21:26:13.879Z,24.18
2022-09-11T21:28:41.202Z,23.98
2022-09-11T21:31:08.074Z,23.88
2022-09-11T21:33:36.747Z,24.03
2022-09-11T21:36:04.978Z,24.15
2022-09-11T21:38:31.860Z,24.10
2022-09-11T21:41:01.216Z,24.13
2022-09-11T21:43:28.932Z,23.97
2022-09-11T21:45:55.711Z,24.24
2022-09-11T21:48:23.513Z,24.23
2022-09-11T21:50:50.342Z,24.29
2022-09-11T21:53:17.133Z,24.14
2022-09-11T21:55:45.796Z,24.20
2022-09-11T21:58:18.868Z,24.19
2022-09-11T22:00:48.365Z,24.18
2022-09-11T22:03:17.236Z,23.93
2022-09-11T22:05:46.555Z,24.05
2022-09-11T22:08:15.491Z,24.02
2022-09-11T22:10:50.749Z,23.87
2022-09-11T22:13:19.446Z,23.32
2022-09-11T22:15:48.808Z,23.98
2022-09-11T22:18:16.629Z,24.14
2022-09-11T22:20:43.724Z,24.06
2022-09-11T22:23:15.893Z,23.96
2022-09-11T22:25:43.453Z,24.09
2022-09-11T22:28:10.460Z,23.63
2022-09-11T22:30:41.598Z,23.86
2022-09-11T22:33:08.571Z,23.91
2022-09-11T22:35:36.028Z,23.84
2022-09-11T22:38:02.783Z,23.72
2022-09-11T22:40:29.509Z,23.83
2022-09-11T22:42:56.335Z,23.78
2022-09-11T22:45:23.054Z,23.76
2022-09-11T22:47:50.011Z,23.64
2022-09-11T22:50:17.225Z,23.51
2022-09-11T22:52:44.008Z,23.65
2022-09-11T22:55:11.464Z,23.30
2022-09-11T22:57:38.879Z,23.44
2022-09-11T23:00:09.151Z,23.45
2022-09-11T23:02:38.842Z,23.17
2022-09-11T23:05:24.778Z,23.17
2022-09-11T23:07:53.040Z,23.25
2022-09-11T23:10:23.739Z,23.21
2022-09-11T23:12:54.048Z,23.11
2022-09-11T23:15:21.602Z,23.16
2022-09-11T23:17:48.462Z,23.25
2022-09-11T23:20:15.390Z,23.08
2022-09-11T23:22:42.297Z,23.14
2022-09-11T23:25:17.016Z,23.27
2022-09-11T23:27:44.864Z,23.22
2022-09-11T23:30:11.885Z,23.04
2022-09-11T23:32:41.770Z,23.12
2022-09-11T23:35:09.811Z,23.07
2022-09-11T23:37:36.872Z,22.97
2022-09-11T23:40:07.068Z,23.03
2022-09-11T23:42:33.889Z,22.92
2022-09-11T23:45:00.601Z,23.07
2022-09-11T23:47:29.983Z,23.14
2022-09-11T23:49:57.882Z,23.00
2022-09-11T23:52:24.867Z,23.00
2022-09-11T23:54:51.733Z,23.16
2022-09-11T23:57:18.457Z,23.18
2022-09-11T23:59:48.295Z,23.12
